Terminal Aerodrome Forecast
Issued by NWS Cleveland, OH

Home | Current Version | Previous Version | Graphics & Text | Print | Product List | Glossary Off
Versions: 1 2 3 4 5 6 7 8 9 10 11 12 13 14 15 16 17 18 19 20 21

000
FTUS41 KCLE 262300
TAFCAK
TAF
KCAK 262336Z 2700/2724 35008KT P6SM BKN025 OVC100
      TEMPO 2700/2702 5SM -SHSN
     FM270700 32004KT P6SM SCT025
     FM271400 27006KT P6SM SKC=

USA.gov is the U.S. government's official web portal to all federal, state and local government web resources and services.